Map

Track Data

SID SEASON NUMBER BASIN SUBBASIN NAME ISO_TIME NATURE LAT LON WMO_WIND WMO_PRES WMO_AGENCY TRACK_TYPE DIST2LAND LANDFALL IFLAG USA_AGENCY USA_ATCF_ID USA_LAT USA_LON USA_RECORD USA_STATUS USA_WIND USA_PRES USA_SSHS USA_R34_NE USA_R34_SE USA_R34_SW USA_R34_NW USA_R50_NE USA_R50_SE USA_R50_SW USA_R50_NW USA_R64_NE USA_R64_SE USA_R64_SW USA_R64_NW USA_POCI USA_ROCI USA_RMW USA_EYE TOKYO_LAT TOKYO_LON TOKYO_GRADE TOKYO_WIND TOKYO_PRES TOKYO_R50_DIR TOKYO_R50_LONG TOKYO_R50_SHORT TOKYO_R30_DIR TOKYO_R30_LONG TOKYO_R30_SHORT TOKYO_LAND CMA_LAT CMA_LON CMA_CAT CMA_WIND CMA_PRES HKO_LAT HKO_LON HKO_CAT HKO_WIND HKO_PRES NEWDELHI_LAT NEWDELHI_LON NEWDELHI_GRADE NEWDELHI_WIND NEWDELHI_PRES NEWDELHI_CI NEWDELHI_DP NEWDELHI_POCI REUNION_LAT REUNION_LON REUNION_TYPE REUNION_WIND REUNION_PRES REUNION_TNUM REUNION_CI REUNION_RMW REUNION_R34_NE REUNION_R34_SE REUNION_R34_SW REUNION_R34_NW REUNION_R50_NE REUNION_R50_SE REUNION_R50_SW REUNION_R50_NW REUNION_R64_NE REUNION_R64_SE REUNION_R64_SW REUNION_R64_NW BOM_LAT BOM_LON BOM_TYPE BOM_WIND BOM_PRES BOM_TNUM BOM_CI BOM_RMW BOM_R34_NE BOM_R34_SE BOM_R34_SW BOM_R34_NW BOM_R50_NE BOM_R50_SE BOM_R50_SW BOM_R50_NW BOM_R64_NE BOM_R64_SE BOM_R64_SW BOM_R64_NW BOM_ROCI BOM_POCI BOM_EYE BOM_POS_METHOD BOM_PRES_METHOD NADI_LAT NADI_LON NADI_CAT NADI_WIND NADI_PRES WELLINGTON_LAT WELLINGTON_LON WELLINGTON_WIND WELLINGTON_PRES DS824_LAT DS824_LON DS824_STAGE DS824_WIND DS824_PRES TD9636_LAT TD9636_LON TD9636_STAGE TD9636_WIND TD9636_PRES TD9635_LAT TD9635_LON TD9635_WIND TD9635_PRES TD9635_ROCI NEUMANN_LAT NEUMANN_LON NEUMANN_CLASS NEUMANN_WIND NEUMANN_PRES MLC_LAT MLC_LON MLC_CLASS MLC_WIND MLC_PRES USA_GUST BOM_GUST BOM_GUST_PER REUNION_GUST REUNION_GUST_PER USA_SEAHGT USA_SEARAD_NE USA_SEARAD_SE USA_SEARAD_SW USA_SEARAD_NW STORM_SPEED STORM_DIR
1963334N05090 1963 111 NI BB NOT_NAMED 1963-11-30 06:00:00 TS 5.10000 89.6000 main 621 621 O________O____ jtwc_io IO161963 5.10000 89.6000 -1 5.10000 89.6000 TC 1 229
1963334N05090 1963 111 NI BB NOT_NAMED 1963-11-30 09:00:00 TS 5.05500 89.5500 main 621 621 P________P____ IO161963 5.05500 89.5500 -1 5.05500 89.5500 TC 2 270
1963334N05090 1963 111 NI BB NOT_NAMED 1963-11-30 12:00:00 TS 5.10000 89.4000 main 643 643 O________O____ jtwc_io IO161963 5.10000 89.4000 -1 5.10000 89.4000 TC 25 5 297
1963334N05090 1963 111 NI BB NOT_NAMED 1963-11-30 15:00:00 TS 5.29775 89.0777 main 676 676 P________PO___ IO161963 5.29747 89.0749 -1 5.29747 89.0749 TC 25 5.30000 89.1000 1 10 302
1963334N05090 1963 111 NI BB NOT_NAMED 1963-11-30 18:00:00 TS 5.60887 88.5817 main 731 685 O________OP___ jtwc_io IO161963 5.60000 88.6000 -1 5.60000 88.6000 TC 25 5.64437 88.5086 1 13 301
1963334N05090 1963 111 NI BB NOT_NAMED 1963-11-30 21:00:00 TS 5.96120 87.9792 main 683 613 P________PP___ IO161963 5.95763 87.9926 -1 5.95763 87.9926 TC 25 5.97075 87.9433 1 14 300
1963334N05090 1963 111 NI BB NOT_NAMED 1963-12-01 00:00:00 TS 6.28724 87.4105 main 613 566 O________OP___ jtwc_io IO161963 6.30000 87.4000 -1 6.30000 87.4000 TC 25 6.26171 87.4314 1 11 300
1963334N05090 1963 111 NI BB NOT_NAMED 1963-12-01 03:00:00 TS 6.52493 86.9983 main 566 531 P________PO___ IO161963 6.53740 86.9974 -1 6.53740 86.9974 TC 25 6.50000 87.0000 1 8 299
1963334N05090 1963 111 NI BB NOT_NAMED 1963-12-01 06:00:00 TS 6.69114 86.6889 main 531 497 O________OP___ jtwc_io IO161963 6.70000 86.7000 -1 6.70000 86.7000 TC 25 6.67342 86.6666 1 6 297
1963334N05090 1963 111 NI BB NOT_NAMED 1963-12-01 09:00:00 TS 6.81651 86.4216 main 497 475 P________PP___ IO161963 6.82997 86.4275 -1 6.82997 86.4275 TC 25 6.78960 86.4097 1 5 292
1963334N05090 1963 111 NI BB NOT_NAMED 1963-12-01 12:00:00 TS 6.88700 86.1993 main 475 453 O________OP___ jtwc_io IO161963 6.90000 86.2000 -1 6.90000 86.2000 TC 25 6.86100 86.1980 1 4 283
1963334N05090 1963 111 NI BB NOT_NAMED 1963-12-01 15:00:00 TS 6.90998 86.0000 main 453 431 P________PO___ IO161963 6.91497 86.0000 -1 6.91497 86.0000 TC 25 6.90000 86.0000 1 4 273
1963334N05090 1963 111 NI BB NOT_NAMED 1963-12-01 18:00:00 TS 6.90956 85.7906 main 431 408 O________OP___ jtwc_io IO161963 6.90000 85.8000 -1 6.90000 85.8000 TC 25 6.92869 85.7718 1 4 270
1963334N05090 1963 111 NI BB NOT_NAMED 1963-12-01 21:00:00 TS 6.90998 85.5500 main 397 375 P________PP___ IO161963 6.90001 85.5500 -1 6.90001 85.5500 TC 25 6.92991 85.5499 1 5 270
1963334N05090 1963 111 NI BB NOT_NAMED 1963-12-02 00:00:00 TS 6.90540 85.3094 main 375 353 O________OP___ jtwc_io IO161963 6.90000 85.3000 -1 6.90000 85.3000 TC 25 6.91619 85.3281 1 4 269
1963334N05090 1963 111 NI BB NOT_NAMED 1963-12-02 03:00:00 TS 6.89997 85.1050 main 353 331 P________PO___ IO161963 6.89996 85.1075 -1 6.89996 85.1075 TC 25 6.90000 85.1000 1 4 269
1963334N05090 1963 111 NI BB NOT_NAMED 1963-12-02 06:00:00 TS 6.89865 84.8817 main 331 298 O________OP___ jtwc_io IO161963 6.90000 84.9000 -1 6.90000 84.9000 TC 25 6.89596 84.8450 1 5 270
1963334N05090 1963 111 NI BB NOT_NAMED 1963-12-02 09:00:00 TS 6.89753 84.5950 main 298 265 P________PP___ IO161963 6.90003 84.6000 -1 6.90003 84.6000 TC 25 6.89253 84.5850 1 6 270
1963334N05090 1963 111 NI BB NOT_NAMED 1963-12-02 12:00:00 TS 6.89761 84.3108 main 265 243 O________OP___ jtwc_io IO161963 6.90000 84.3000 -1 6.90000 84.3000 TC 25 6.89284 84.3325 1 5 270
1963334N05090 1963 111 NI BB NOT_NAMED 1963-12-02 15:00:00 TS 6.89499 84.0850 main 243 221 P________PO___ IO161963 6.89248 84.0775 -1 6.89248 84.0775 TC 25 6.90000 84.1000 1 4 271
1963334N05090 1963 111 NI BB NOT_NAMED 1963-12-02 18:00:00 TS 6.90456 83.8998 main 221 199 O________OP___ jtwc_io IO161963 6.90000 83.9000 -1 6.90000 83.9000 TC 25 6.91369 83.8994 1 3 278
1963334N05090 1963 111 NI BB NOT_NAMED 1963-12-02 21:00:00 TS 6.94496 83.7400 main 199 187 P________PP___ IO161963 6.94998 83.7500 -1 6.94998 83.7500 TC 30 6.93493 83.7200 1 3 285
1963334N05090 1963 111 NI BB NOT_NAMED 1963-12-03 00:00:00 TS 6.98790 83.5852 main 187 165 O________OP___ jtwc_io IO161963 7.00000 83.6000 -1 7.00000 83.6000 TC 35 6.96371 83.5556 1 3 279
1963334N05090 1963 111 NI BB NOT_NAMED 1963-12-03 03:00:00 TS 7.00001 83.4000 main 165 143 P________PO___ IO161963 7.00001 83.4000 -1 7.00001 83.4000 TC 35 7.00000 83.4000 2 4 274
1963334N05090 1963 111 NI BB NOT_NAMED 1963-12-03 06:00:00 TS 7.01562 83.2129 main 143 132 O________OP___ jtwc_io IO161963 7.00000 83.2000 -1 7.00000 83.2000 TC 35 7.04686 83.2388 2 4 280
1963334N05090 1963 111 NI BB NOT_NAMED 1963-12-03 09:00:00 TS 7.06166 83.0517 main 133 111 P________PP___ IO161963 7.04249 83.0350 -1 7.04249 83.0350 TC 35 7.09998 83.0850 2 3 289
1963334N05090 1963 111 NI BB NOT_NAMED 1963-12-03 12:00:00 TS 7.11770 82.9129 main 111 100 O________OP___ jtwc_io IO161963 7.10000 82.9000 -1 7.10000 82.9000 TC 35 7.15311 82.9388 2 3 293
1963334N05090 1963 111 NI BB NOT_NAMED 1963-12-03 15:00:00 TS 7.16666 82.8000 main 101 91 P________PO___ IO161963 7.14999 82.8000 -1 7.14999 82.8000 TC 35 7.20000 82.8000 3 2 291
1963334N05090 1963 111 NI BB NOT_NAMED 1963-12-03 18:00:00 TS 7.20124 82.6919 main 91 80 O________OP___ jtwc_io IO161963 7.20000 82.7000 -1 7.20000 82.7000 TC 35 7.20371 82.6758 3 3 286
1963334N05090 1963 111 NI BB NOT_NAMED 1963-12-03 21:00:00 TS 7.23498 82.5574 main 80 64 P________PP___ IO161963 7.25000 82.5575 -1 7.25000 82.5575 TC 35 7.20495 82.5574 3 3 285
1963334N05090 1963 111 NI BB NOT_NAMED 1963-12-04 00:00:00 TS 7.27624 82.4117 main 64 55 O________OP___ jtwc_io IO161963 7.30000 82.4000 -1 7.30000 82.4000 TC 35 7.22871 82.4352 3 3 287
1963334N05090 1963 111 NI BB NOT_NAMED 1963-12-04 03:00:00 TS 7.31833 82.2716 main 55 33 P________PO___ IO161963 7.32749 82.2575 -1 7.32749 82.2575 TC 35 7.30000 82.3000 3 3 294
1963334N05090 1963 111 NI BB NOT_NAMED 1963-12-04 06:00:00 TS 7.41117 82.1010 main 33 11 O________OP___ jtwc_io IO161963 7.40000 82.1000 -1 7.40000 82.1000 TC 35 7.43351 82.1030 3 5 305
1963334N05090 1963 111 NI BB NOT_NAMED 1963-12-04 09:00:00 TS 7.58089 81.8893 main 11 0 P________PP___ IO161963 7.56252 81.8850 -1 7.56252 81.8850 TC 35 7.61761 81.8978 3 6 316
1963334N05090 1963 111 NI BB NOT_NAMED 1963-12-04 12:00:00 TS 7.81430 81.7062 main 11 0 O________OP___ jtwc_io IO161963 7.80000 81.7000 -1 7.80000 81.7000 TC 35 7.84289 81.7186 3 6 331
1963334N05090 1963 111 NI BB NOT_NAMED 1963-12-04 15:00:00 TS 8.08999 81.6083 main 11 11 P________PO___ IO161963 8.08498 81.6125 -1 8.08498 81.6125 TC 35 8.10000 81.6000 3 6 349
1963334N05090 1963 111 NI BB NOT_NAMED 1963-12-04 18:00:00 TS 8.39311 81.5924 main 22 22 O________OP___ jtwc_io IO161963 8.40000 81.6000 -1 8.40000 81.6000 TC 35 8.37933 81.5771 3 6 2
1963334N05090 1963 111 NI BB NOT_NAMED 1963-12-04 21:00:00 TS 8.69998 81.6241 main 40 40 P________PP___ IO161963 8.70750 81.6275 -1 8.70750 81.6275 TC 35 8.68495 81.6173 3 6 10
1963334N05090 1963 111 NI BB NOT_NAMED 1963-12-05 00:00:00 TS 8.99937 81.6997 main 64 64 O________OP___ jtwc_io IO161963 9.00000 81.7000 -1 9.00000 81.7000 TC 35 8.99810 81.6990 3 6 16
1963334N05090 1963 111 NI BB NOT_NAMED 1963-12-05 03:00:00 TS 9.27167 81.7950 main 94 94 P________PO___ IO161963 9.25750 81.7925 -1 9.25750 81.7925 TC 35 9.30000 81.8000 3 6 20
1963334N05090 1963 111 NI BB NOT_NAMED 1963-12-05 06:00:00 TS 9.52146 81.8966 main 117 117 O________OP___ jtwc_io IO161963 9.50000 81.9000 -1 9.50000 81.9000 TC 35 9.56438 81.8897 3 5 22
1963334N05090 1963 111 NI BB NOT_NAMED 1963-12-05 09:00:00 TS 9.77167 81.9975 main 143 143 P________PP___ IO161963 9.75000 82.0000 -1 9.75000 82.0000 TC 30 9.81501 81.9925 3 5 22
1963334N05090 1963 111 NI BB NOT_NAMED 1963-12-05 12:00:00 TS 10.0194 82.0997 main 162 162 O________OP___ jtwc_io IO161963 10.0000 82.1000 -1 10.0000 82.1000 TC 25 10.0581 82.0991 3 5 23
1963334N05090 1963 111 NI BB NOT_NAMED 1963-12-05 15:00:00 TS 10.2667 82.2050 main 190 190 P________PO___ IO161963 10.2500 82.2075 -1 10.2500 82.2075 TC 25 10.3000 82.2000 1 5 21
1963334N05090 1963 111 NI BB NOT_NAMED 1963-12-05 18:00:00 TS 10.5182 82.2952 main 212 212 O________OP___ jtwc_io IO161963 10.5000 82.3000 -1 10.5000 82.3000 TC 25 10.5456 82.2881 1 5 17
1963334N05090 1963 111 NI BB NOT_NAMED 1963-12-05 21:00:00 TS 10.7693 82.3621 main 242 242 P________PP___ IO161963 10.7500 82.3600 -1 10.7500 82.3600 TC 25 10.7950 82.3650 1 5 13
1963334N05090 1963 111 NI BB NOT_NAMED 1963-12-06 00:00:00 TS 11.0234 82.4172 main 258 258 O________OP___ jtwc_io IO161963 11.0000 82.4000 -1 11.0000 82.4000 TC 25 11.0469 82.4343 1 6 15
1963334N05090 1963 111 NI BB NOT_NAMED 1963-12-06 03:00:00 NR 11.3000 82.5000 main 283 __________O___ IO161963 -1 TC 11.3000 82.5000 1 6 16

About IBTrACS Database

This database is a web-friendly format of International Best Track Archive for Climate Stewardship (IBTrACS), a global best track data archive curated by NOAA dating back to 1842.

Updated: 2021-10-25